createdAt,value
2022-12-14T00:01:48.683Z,19.78
2022-12-14T00:16:35.949Z,18.49
2022-12-14T00:31:26.260Z,15.30
2022-12-14T00:46:15.720Z,19.89
2022-12-14T01:01:04.915Z,20.63
2022-12-14T01:15:54.045Z,18.77
2022-12-14T01:30:43.642Z,15.71
2022-12-14T01:45:33.317Z,20.69
2022-12-14T02:00:27.474Z,22.78
2022-12-14T02:15:20.030Z,15.47
2022-12-14T02:30:15.594Z,19.11
2022-12-14T02:45:17.311Z,14.39
2022-12-14T03:00:11.326Z,20.04
2022-12-14T03:15:01.693Z,16.49
2022-12-14T03:29:51.586Z,24.14
2022-12-14T03:44:49.311Z,19.12
2022-12-14T03:59:43.360Z,23.32
2022-12-14T04:14:54.086Z,21.44
2022-12-14T04:29:58.200Z,19.79
2022-12-14T04:44:52.486Z,23.16
2022-12-14T04:59:42.454Z,21.34
2022-12-14T05:14:37.339Z,21.67
2022-12-14T05:29:31.476Z,21.74
2022-12-14T05:44:21.324Z,30.80
2022-12-14T05:59:10.976Z,28.48
2022-12-14T06:14:01.545Z,24.83
2022-12-14T06:28:51.197Z,28.87
2022-12-14T06:58:32.609Z,36.07
2022-12-14T07:13:21.202Z,36.09
2022-12-14T07:28:11.320Z,34.32
2022-12-14T07:43:01.757Z,31.66
2022-12-14T07:57:50.830Z,29.91
2022-12-14T08:12:40.402Z,32.57
2022-12-14T08:27:30.345Z,34.52
2022-12-14T08:42:20.326Z,35.88
2022-12-14T08:57:10.079Z,37.09
2022-12-14T09:12:00.271Z,37.46
2022-12-14T09:26:49.855Z,44.84
2022-12-14T09:41:45.344Z,44.57
2022-12-14T09:56:38.096Z,45.57
2022-12-14T10:11:30.161Z,41.98
2022-12-14T10:26:22.360Z,39.51
2022-12-14T10:41:32.995Z,39.21
2022-12-14T10:56:27.829Z,35.20
2022-12-14T11:11:21.470Z,38.20
2022-12-14T11:26:15.586Z,45.36
2022-12-14T11:41:11.858Z,43.27
2022-12-14T11:55:57.549Z,42.67
2022-12-14T12:10:49.954Z,41.53
2022-12-14T12:25:37.894Z,35.46
2022-12-14T12:40:30.030Z,43.41
2022-12-14T12:55:22.825Z,43.69
2022-12-14T13:10:34.118Z,45.42
2022-12-14T13:25:50.388Z,49.12
2022-12-14T13:40:57.596Z,46.57
2022-12-14T13:56:00.401Z,46.98
2022-12-14T14:11:20.571Z,52.57
2022-12-14T14:25:48.691Z,43.30
2022-12-14T14:41:14.734Z,45.86
2022-12-14T15:10:24.389Z,48.67
2022-12-14T15:25:17.511Z,48.63
2022-12-14T15:40:15.823Z,33.42
2022-12-14T15:55:09.265Z,47.62
2022-12-14T16:10:00.163Z,46.04
2022-12-14T16:24:56.901Z,47.66
2022-12-14T16:39:49.623Z,47.82
2022-12-14T16:54:39.020Z,44.22
2022-12-14T17:09:28.685Z,45.59
2022-12-14T17:24:18.686Z,44.97
2022-12-14T17:39:08.876Z,49.13
2022-12-14T17:53:58.653Z,38.09
2022-12-14T18:08:51.012Z,42.26
2022-12-14T18:23:43.312Z,35.79
2022-12-14T18:38:32.261Z,30.41
2022-12-14T18:53:22.679Z,29.57
2022-12-14T19:08:12.959Z,33.89
2022-12-14T19:23:02.909Z,35.42
2022-12-14T19:37:54.770Z,43.00
2022-12-14T19:52:47.017Z,39.82
2022-12-14T20:07:43.335Z,33.09
2022-12-14T20:22:26.682Z,35.52
2022-12-14T20:37:16.085Z,32.96
2022-12-14T20:52:06.694Z,36.43
2022-12-14T21:06:56.479Z,35.94
2022-12-14T21:21:53.034Z,32.13
2022-12-14T21:36:36.545Z,33.16
2022-12-14T21:51:25.748Z,32.36
2022-12-14T22:06:14.947Z,30.71
2022-12-14T22:21:04.854Z,31.90
2022-12-14T22:35:53.626Z,37.38
2022-12-14T22:50:43.150Z,34.13
2022-12-14T23:05:33.738Z,33.33
2022-12-14T23:20:44.346Z,33.69
2022-12-14T23:35:58.164Z,31.62
2022-12-14T23:51:10.796Z,30.39
